Terminal Aerodrome Forecast
Issued by NWS Wilmington, OH

Current Version | Previous Version | Graphics & Text | Print | Product List | Glossary On
Versions: 1 2 3 4 5 6 7 8 9 10 11 12 13 14 15 16 17 18 19
585
FTUS41 KILN 181720
TAFCMH
TAF
KCMH 181720Z 1818/1918 22013G20KT P6SM SKC
     FM182300 21006KT P6SM FEW250
     FM191400 22012KT P6SM FEW250=

USA.gov is the U.S. government's official web portal to all federal, state and local government web resources and services.